createdAt,value
2022-12-17T00:02:30.785Z,7.25
2022-12-17T00:05:17.625Z,7.18
2022-12-17T00:08:23.531Z,7.23
2022-12-17T00:11:09.620Z,7.18
2022-12-17T00:13:56.351Z,7.11
2022-12-17T00:16:42.923Z,7.13
2022-12-17T00:19:29.690Z,7.12
2022-12-17T00:22:16.342Z,7.11
2022-12-17T00:25:02.718Z,7.14
2022-12-17T00:27:49.371Z,7.12
2022-12-17T00:30:35.637Z,7.13
2022-12-17T00:33:22.282Z,7.12
2022-12-17T00:36:12.090Z,7.08
2022-12-17T00:38:58.622Z,7.09
2022-12-17T00:41:45.989Z,6.96
2022-12-17T00:44:32.597Z,7.12
2022-12-17T00:47:19.680Z,7.08
2022-12-17T00:50:07.912Z,6.93
2022-12-17T00:52:54.039Z,7.03
2022-12-17T00:55:42.623Z,7.04
2022-12-17T00:58:49.417Z,7.04
2022-12-17T01:01:47.075Z,7.03
2022-12-17T01:04:33.849Z,7.03
2022-12-17T01:07:20.631Z,6.99
2022-12-17T01:10:08.448Z,7.00
2022-12-17T01:12:54.977Z,7.02
2022-12-17T01:15:42.533Z,7.06
2022-12-17T01:18:28.850Z,7.12
2022-12-17T01:21:16.244Z,7.16
2022-12-17T01:24:04.654Z,7.25
2022-12-17T01:27:00.151Z,7.22
2022-12-17T01:29:46.175Z,7.22
2022-12-17T01:32:32.694Z,7.20
2022-12-17T01:35:21.039Z,7.22
2022-12-17T01:38:07.935Z,7.23
2022-12-17T01:40:54.276Z,7.15
2022-12-17T01:43:52.336Z,7.21
2022-12-17T01:46:40.033Z,7.18
2022-12-17T01:49:29.408Z,7.16
2022-12-17T01:52:17.075Z,7.20
2022-12-17T01:55:04.337Z,7.21
2022-12-17T01:57:51.548Z,7.21
2022-12-17T02:00:38.841Z,7.20
2022-12-17T02:03:36.488Z,7.27
2022-12-17T02:06:44.194Z,7.42
2022-12-17T02:09:43.500Z,7.51
2022-12-17T02:12:45.734Z,7.49
2022-12-17T02:15:49.430Z,7.36
2022-12-17T02:18:44.345Z,7.23
2022-12-17T02:21:31.682Z,7.05
2022-12-17T02:24:46.626Z,7.18
2022-12-17T02:27:34.455Z,7.29
2022-12-17T02:30:25.086Z,7.30
2022-12-17T02:33:13.408Z,7.31
2022-12-17T02:36:12.413Z,7.34
2022-12-17T02:38:59.125Z,7.26
2022-12-17T02:41:58.339Z,7.29
2022-12-17T02:44:48.588Z,7.24
2022-12-17T02:47:37.415Z,7.24
2022-12-17T02:50:25.458Z,7.18
2022-12-17T02:53:13.235Z,7.13
2022-12-17T02:55:59.902Z,6.95
2022-12-17T03:00:57.268Z,6.70
2022-12-17T03:03:49.938Z,6.35
2022-12-17T03:06:37.109Z,6.50
2022-12-17T03:15:26.407Z,6.43
2022-12-17T03:18:13.434Z,6.45
2022-12-17T03:21:00.178Z,6.37
2022-12-17T03:23:46.694Z,6.43
2022-12-17T03:26:33.015Z,6.43
2022-12-17T03:29:19.726Z,6.42
2022-12-17T03:32:07.089Z,6.22
2022-12-17T03:34:53.361Z,6.16
2022-12-17T03:37:39.583Z,6.11
2022-12-17T03:40:26.086Z,6.06
2022-12-17T03:43:12.249Z,6.08
2022-12-17T03:45:58.913Z,5.97
2022-12-17T03:48:45.031Z,6.01
2022-12-17T03:51:31.609Z,6.15
2022-12-17T03:54:17.834Z,6.29
2022-12-17T03:57:03.994Z,6.06
2022-12-17T03:59:50.292Z,6.18
2022-12-17T04:02:36.759Z,6.04
2022-12-17T04:05:23.561Z,6.23
2022-12-17T04:08:10.728Z,6.31
2022-12-17T04:10:57.529Z,6.30
2022-12-17T04:13:44.317Z,6.13
2022-12-17T04:16:31.103Z,6.25
2022-12-17T04:19:17.800Z,6.15
2022-12-17T04:22:03.897Z,6.24
2022-12-17T04:24:50.339Z,6.31
2022-12-17T04:27:37.031Z,6.32
2022-12-17T04:30:24.035Z,6.36
2022-12-17T04:33:10.898Z,6.36
2022-12-17T04:35:57.526Z,6.44
2022-12-17T04:38:44.086Z,6.43
2022-12-17T04:41:30.421Z,6.41
2022-12-17T04:44:16.893Z,6.42
2022-12-17T04:47:03.409Z,6.31
2022-12-17T04:49:49.705Z,6.05
2022-12-17T04:52:36.050Z,6.15
2022-12-17T04:55:22.688Z,5.93
2022-12-17T04:58:09.150Z,5.88
2022-12-17T05:00:55.377Z,5.87
2022-12-17T05:03:41.950Z,5.68
2022-12-17T05:06:29.196Z,5.75
2022-12-17T05:09:15.928Z,5.62
2022-12-17T05:12:02.494Z,5.83
2022-12-17T05:14:48.874Z,5.91
2022-12-17T05:17:35.528Z,6.04
2022-12-17T05:20:22.015Z,6.13
2022-12-17T05:23:08.717Z,6.23
2022-12-17T05:25:55.281Z,6.17
2022-12-17T05:28:41.593Z,6.17
2022-12-17T05:31:28.314Z,5.95
2022-12-17T05:34:14.844Z,6.03
2022-12-17T05:37:01.071Z,5.94
2022-12-17T05:39:47.810Z,5.72
2022-12-17T05:42:34.371Z,5.92
2022-12-17T05:45:21.165Z,5.99
2022-12-17T05:48:07.602Z,6.06
2022-12-17T05:50:53.857Z,6.16
2022-12-17T05:53:40.218Z,6.26
2022-12-17T05:56:26.593Z,6.18
2022-12-17T05:59:13.175Z,6.26
2022-12-17T06:01:59.726Z,6.35
2022-12-17T06:04:46.487Z,6.29
2022-12-17T06:07:33.100Z,6.41
2022-12-17T06:10:19.416Z,6.41
2022-12-17T06:13:15.872Z,6.35
2022-12-17T06:16:02.209Z,6.27
2022-12-17T06:18:49.131Z,6.33
2022-12-17T06:21:35.720Z,6.58
2022-12-17T06:24:22.646Z,6.71
2022-12-17T06:27:09.928Z,6.88
2022-12-17T06:29:56.864Z,7.02
2022-12-17T06:32:43.306Z,7.18
2022-12-17T06:35:29.588Z,7.28
2022-12-17T06:38:25.571Z,7.31
2022-12-17T06:41:12.230Z,7.27
2022-12-17T06:43:58.411Z,7.30
2022-12-17T06:46:45.204Z,7.42
2022-12-17T06:49:31.712Z,7.61
2022-12-17T06:52:17.944Z,7.79
2022-12-17T06:55:04.313Z,7.69
2022-12-17T06:57:50.812Z,7.79
2022-12-17T07:00:37.153Z,7.97
2022-12-17T07:03:23.973Z,8.10
2022-12-17T07:06:10.603Z,8.23
2022-12-17T07:08:56.876Z,8.10
2022-12-17T07:11:43.869Z,8.24
2022-12-17T07:14:30.588Z,8.30
2022-12-17T07:17:16.783Z,8.31
2022-12-17T07:20:03.008Z,8.41
2022-12-17T07:22:49.575Z,8.46
2022-12-17T07:25:37.253Z,8.66
2022-12-17T07:28:26.096Z,8.89
2022-12-17T07:31:15.209Z,9.36
2022-12-17T07:34:01.816Z,9.82
2022-12-17T07:36:48.409Z,10.05
2022-12-17T07:39:35.100Z,10.58
2022-12-17T07:42:21.781Z,11.06
2022-12-17T07:45:08.400Z,11.82
2022-12-17T07:47:55.043Z,11.94
2022-12-17T07:50:43.230Z,11.90
2022-12-17T07:53:29.790Z,11.72
2022-12-17T07:56:16.923Z,11.56
2022-12-17T07:59:03.248Z,11.49
2022-12-17T08:01:50.068Z,11.58
2022-12-17T08:04:36.430Z,11.66
2022-12-17T08:07:22.732Z,11.41
2022-12-17T08:10:08.965Z,11.45
2022-12-17T08:12:55.647Z,11.42
2022-12-17T08:15:42.429Z,11.38
2022-12-17T08:18:29.545Z,11.32
2022-12-17T08:21:16.208Z,11.34
2022-12-17T08:24:02.961Z,11.30
2022-12-17T08:26:49.528Z,11.32
2022-12-17T08:29:36.037Z,11.28
2022-12-17T08:32:23.262Z,11.49
2022-12-17T08:35:09.988Z,12.01
2022-12-17T08:37:56.693Z,12.74
2022-12-17T08:40:43.351Z,13.17
2022-12-17T08:43:29.759Z,13.26
2022-12-17T08:46:16.951Z,13.32
2022-12-17T08:49:03.763Z,13.34
2022-12-17T08:51:50.481Z,13.63
2022-12-17T08:54:36.783Z,13.88
2022-12-17T08:57:31.482Z,14.20
2022-12-17T09:00:18.896Z,14.83
2022-12-17T09:03:05.607Z,15.71
2022-12-17T09:05:52.227Z,16.90
2022-12-17T09:08:38.965Z,17.79
2022-12-17T09:11:25.859Z,18.96
2022-12-17T09:14:13.581Z,20.05
2022-12-17T09:23:05.240Z,19.25
2022-12-17T09:25:56.570Z,19.26
2022-12-17T09:28:45.168Z,18.63
2022-12-17T09:31:37.001Z,17.34
2022-12-17T09:34:24.470Z,17.35
2022-12-17T09:37:11.201Z,17.97
2022-12-17T09:39:57.881Z,18.77
2022-12-17T09:43:22.015Z,19.66
2022-12-17T09:46:28.084Z,19.01
2022-12-17T09:49:45.843Z,17.84
2022-12-17T09:52:55.830Z,18.76
2022-12-17T09:56:07.480Z,18.28
2022-12-17T09:58:57.235Z,18.71
2022-12-17T10:01:46.955Z,19.40
2022-12-17T10:04:56.307Z,19.68
2022-12-17T10:07:47.295Z,18.51
2022-12-17T10:10:42.961Z,17.36
2022-12-17T10:13:34.988Z,16.24
2022-12-17T10:16:35.553Z,15.78
2022-12-17T10:19:22.536Z,15.64
2022-12-17T10:22:09.218Z,15.60
2022-12-17T10:25:04.829Z,15.49
2022-12-17T10:27:50.981Z,15.40
2022-12-17T10:30:38.139Z,15.18
2022-12-17T10:33:26.784Z,14.67
2022-12-17T10:36:13.199Z,14.51
2022-12-17T10:39:00.015Z,14.22
2022-12-17T10:41:49.674Z,14.28
2022-12-17T10:44:53.712Z,13.93
2022-12-17T10:47:45.170Z,13.86
2022-12-17T10:50:45.132Z,13.46
2022-12-17T10:53:43.986Z,13.44
2022-12-17T10:56:45.491Z,13.36
2022-12-17T10:59:44.897Z,13.31
2022-12-17T11:02:39.604Z,13.18
2022-12-17T11:05:45.357Z,13.38
2022-12-17T11:08:35.653Z,13.67
2022-12-17T11:11:25.464Z,14.02
2022-12-17T11:14:13.123Z,16.63
2022-12-17T11:17:06.882Z,18.41
2022-12-17T11:20:03.063Z,19.55
2022-12-17T11:23:08.902Z,19.56
2022-12-17T11:26:01.072Z,19.32
2022-12-17T11:28:52.467Z,19.44
2022-12-17T11:31:50.452Z,19.49
2022-12-17T11:35:08.881Z,19.95
2022-12-17T11:38:23.418Z,19.30
2022-12-17T11:41:16.773Z,18.13
2022-12-17T11:44:35.690Z,18.33
2022-12-17T11:47:37.966Z,17.84
2022-12-17T11:50:44.737Z,18.12
2022-12-17T11:53:46.383Z,19.40
2022-12-17T11:56:33.162Z,20.21
2022-12-17T11:59:52.669Z,19.99
2022-12-17T12:02:49.572Z,18.95
2022-12-17T12:05:57.255Z,17.60
2022-12-17T12:08:48.071Z,16.73
2022-12-17T12:11:46.566Z,16.43
2022-12-17T12:14:54.360Z,16.23
2022-12-17T12:18:23.768Z,15.89
2022-12-17T12:21:10.961Z,15.76
2022-12-17T12:24:03.586Z,15.66
2022-12-17T12:27:10.161Z,15.01
2022-12-17T12:30:24.985Z,14.88
2022-12-17T12:33:20.981Z,14.39
2022-12-17T12:36:09.661Z,14.28
2022-12-17T12:39:01.938Z,14.15
2022-12-17T12:42:16.496Z,14.56
2022-12-17T12:45:10.455Z,14.67
2022-12-17T12:48:10.954Z,14.77
2022-12-17T12:51:23.827Z,14.64
2022-12-17T12:54:19.503Z,14.56
2022-12-17T12:57:08.716Z,14.56
2022-12-17T12:59:56.241Z,14.34
2022-12-17T13:02:49.776Z,14.43
2022-12-17T13:05:40.114Z,14.48
2022-12-17T13:08:08.618Z,14.61
2022-12-17T13:10:37.902Z,14.69
2022-12-17T13:13:20.322Z,14.75
2022-12-17T13:15:54.696Z,14.77
2022-12-17T13:18:34.854Z,14.63
2022-12-17T13:21:16.288Z,14.57
2022-12-17T13:23:44.792Z,14.46
2022-12-17T13:26:36.092Z,14.56
2022-12-17T13:29:20.362Z,14.59
2022-12-17T13:32:05.515Z,14.61
2022-12-17T13:35:24.210Z,14.44
2022-12-17T13:38:20.345Z,14.20
2022-12-17T13:41:10.460Z,14.26
2022-12-17T13:43:49.629Z,14.27
2022-12-17T13:46:29.508Z,13.93
2022-12-17T13:49:00.261Z,14.12
2022-12-17T13:51:31.044Z,14.11
2022-12-17T13:54:01.907Z,14.02
2022-12-17T13:56:37.810Z,14.13
2022-12-17T13:59:09.621Z,13.98
2022-12-17T14:01:49.846Z,13.74
2022-12-17T14:04:26.325Z,13.77
2022-12-17T14:06:59.442Z,13.61
2022-12-17T14:09:36.056Z,13.48
2022-12-17T14:12:25.421Z,13.47
2022-12-17T14:15:01.594Z,13.36
2022-12-17T14:17:50.080Z,13.16
2022-12-17T14:20:25.693Z,13.16
2022-12-17T14:23:02.401Z,13.12
2022-12-17T14:25:35.718Z,13.24
2022-12-17T14:28:25.256Z,13.03
2022-12-17T14:34:08.598Z,13.19
2022-12-17T14:36:40.047Z,13.20
2022-12-17T14:39:26.640Z,13.21
2022-12-17T14:42:16.989Z,13.09
2022-12-17T14:44:52.855Z,12.95
2022-12-17T14:47:32.945Z,12.98
2022-12-17T14:50:26.429Z,13.04
2022-12-17T14:52:57.703Z,13.04
2022-12-17T14:55:33.329Z,13.10
2022-12-17T14:58:13.457Z,13.04
2022-12-17T15:00:51.115Z,12.85
2022-12-17T15:03:19.703Z,12.79
2022-12-17T15:05:53.244Z,12.75
2022-12-17T15:08:22.397Z,12.73
2022-12-17T15:10:50.970Z,12.86
2022-12-17T15:13:19.406Z,12.87
2022-12-17T15:15:47.693Z,12.87
2022-12-17T15:18:15.713Z,12.73
2022-12-17T15:20:44.153Z,12.55
2022-12-17T15:23:18.917Z,12.43
2022-12-17T15:36:41.224Z,11.79
2022-12-17T15:39:09.756Z,11.94
2022-12-17T15:41:56.838Z,12.02
2022-12-17T15:44:25.150Z,11.97
2022-12-17T15:46:53.445Z,11.83
2022-12-17T15:49:24.719Z,11.32
2022-12-17T15:51:53.287Z,11.19
2022-12-17T15:54:21.714Z,11.37
2022-12-17T15:56:57.070Z,11.35
2022-12-17T15:59:25.483Z,11.30
2022-12-17T16:01:54.211Z,11.32
2022-12-17T16:04:25.249Z,11.10
2022-12-17T16:06:54.109Z,11.18
2022-12-17T16:09:27.362Z,11.17
2022-12-17T16:11:57.141Z,11.06
2022-12-17T16:14:25.924Z,10.80
2022-12-17T16:16:54.320Z,10.59
2022-12-17T16:19:22.671Z,11.17
2022-12-17T16:21:51.056Z,11.44
2022-12-17T16:24:19.753Z,11.54
2022-12-17T16:26:48.102Z,11.44
2022-12-17T16:29:16.597Z,11.52
2022-12-17T16:31:46.581Z,11.52
2022-12-17T16:34:15.252Z,11.39
2022-12-17T16:36:43.660Z,11.47
2022-12-17T16:39:17.944Z,11.49
2022-12-17T16:41:47.257Z,11.37
2022-12-17T16:44:16.015Z,11.43
2022-12-17T16:46:46.801Z,11.40
2022-12-17T16:49:24.953Z,11.35
2022-12-17T16:51:54.812Z,11.28
2022-12-17T16:54:26.566Z,11.15
2022-12-17T16:56:55.365Z,11.21
2022-12-17T16:59:24.162Z,11.24
2022-12-17T17:01:53.806Z,11.18
2022-12-17T17:04:23.638Z,11.03
2022-12-17T17:06:57.196Z,10.91
2022-12-17T17:09:26.614Z,10.94
2022-12-17T17:11:57.342Z,10.82
2022-12-17T17:14:26.912Z,10.71
2022-12-17T17:16:55.429Z,10.68
2022-12-17T17:19:24.024Z,10.68
2022-12-17T17:21:54.936Z,10.69
2022-12-17T17:24:26.195Z,10.67
2022-12-17T17:26:55.911Z,10.61
2022-12-17T17:29:25.797Z,10.52
2022-12-17T17:32:10.334Z,10.48
2022-12-17T17:34:40.787Z,10.49
2022-12-17T17:37:09.212Z,10.34
2022-12-17T17:39:37.763Z,10.27
2022-12-17T17:42:08.452Z,10.22
2022-12-17T17:44:37.682Z,10.27
2022-12-17T17:47:08.134Z,10.29
2022-12-17T17:49:36.853Z,10.18
2022-12-17T17:52:10.225Z,10.16
2022-12-17T17:54:40.104Z,10.17
2022-12-17T17:57:09.853Z,10.07
2022-12-17T17:59:39.897Z,9.95
2022-12-17T18:02:11.529Z,9.77
2022-12-17T18:04:40.378Z,9.88
2022-12-17T18:07:26.083Z,9.82
2022-12-17T18:09:56.284Z,9.75
2022-12-17T18:12:43.214Z,9.76
2022-12-17T18:15:16.924Z,9.67
2022-12-17T18:17:47.730Z,9.51
2022-12-17T18:20:16.807Z,9.38
2022-12-17T18:22:46.808Z,9.44
2022-12-17T18:25:16.950Z,9.39
2022-12-17T18:27:45.515Z,8.94
2022-12-17T18:30:16.663Z,9.06
2022-12-17T18:32:47.475Z,9.14
2022-12-17T18:35:16.246Z,8.87
2022-12-17T18:37:44.541Z,9.04
2022-12-17T18:40:13.146Z,8.97
2022-12-17T18:43:00.027Z,9.02
2022-12-17T18:45:28.718Z,9.03
2022-12-17T18:47:57.185Z,8.98
2022-12-17T18:50:26.134Z,8.91
2022-12-17T18:52:54.411Z,9.00
2022-12-17T18:55:22.930Z,9.05
2022-12-17T18:57:51.457Z,8.99
2022-12-17T19:00:19.685Z,8.74
2022-12-17T19:02:48.415Z,8.77
2022-12-17T19:05:17.154Z,8.87
2022-12-17T19:07:45.700Z,8.90
2022-12-17T19:10:14.267Z,8.75
2022-12-17T19:12:42.599Z,8.82
2022-12-17T19:15:11.155Z,8.74
2022-12-17T19:17:39.721Z,8.64
2022-12-17T19:20:09.034Z,8.55
2022-12-17T19:22:37.475Z,8.67
2022-12-17T19:25:06.265Z,8.78
2022-12-17T19:27:34.574Z,8.82
2022-12-17T19:30:03.150Z,8.77
2022-12-17T19:32:32.073Z,8.80
2022-12-17T19:35:00.604Z,8.89
2022-12-17T19:37:29.014Z,8.94
2022-12-17T19:39:57.769Z,8.88
2022-12-17T19:42:27.599Z,8.81
2022-12-17T19:44:59.411Z,8.67
2022-12-17T19:47:30.882Z,8.68
2022-12-17T19:49:59.408Z,8.68
2022-12-17T19:52:27.641Z,8.70
2022-12-17T19:54:56.237Z,8.71
2022-12-17T19:57:24.649Z,8.58
2022-12-17T19:59:52.648Z,8.72
2022-12-17T20:02:21.129Z,8.81
2022-12-17T20:04:49.736Z,8.82
2022-12-17T20:07:18.602Z,8.87
2022-12-17T20:09:46.898Z,8.91
2022-12-17T20:12:15.439Z,8.99
2022-12-17T20:14:43.796Z,9.02
2022-12-17T20:17:12.521Z,8.99
2022-12-17T20:19:40.976Z,8.99
2022-12-17T20:22:10.800Z,8.96
2022-12-17T20:24:39.911Z,8.85
2022-12-17T20:27:08.486Z,8.94
2022-12-17T20:29:37.088Z,8.93
2022-12-17T20:32:05.696Z,9.01
2022-12-17T20:34:36.391Z,9.00
2022-12-17T20:37:04.340Z,9.09
2022-12-17T20:39:32.648Z,8.94
2022-12-17T20:42:00.672Z,9.05
2022-12-17T20:44:29.093Z,9.05
2022-12-17T20:47:00.499Z,9.03
2022-12-17T20:49:28.556Z,9.05
2022-12-17T20:51:59.630Z,8.76
2022-12-17T20:54:27.843Z,8.84
2022-12-17T20:56:57.682Z,8.74
2022-12-17T20:59:25.811Z,8.63
2022-12-17T21:01:56.355Z,8.94
2022-12-17T21:04:25.148Z,9.02
2022-12-17T21:06:54.022Z,9.11
2022-12-17T21:09:25.760Z,9.15
2022-12-17T21:11:54.142Z,9.25
2022-12-17T21:14:22.043Z,9.23
2022-12-17T21:16:50.301Z,9.39
2022-12-17T21:19:20.270Z,9.43
2022-12-17T21:21:48.771Z,9.44
2022-12-17T21:24:16.688Z,9.46
2022-12-17T21:26:47.213Z,9.49
2022-12-17T21:29:16.445Z,9.56
2022-12-17T21:31:47.591Z,9.52
2022-12-17T21:34:34.991Z,9.42
2022-12-17T21:45:40.894Z,9.46
2022-12-17T21:50:54.291Z,9.59
2022-12-17T21:53:23.784Z,9.70
2022-12-17T21:55:54.958Z,9.60
2022-12-17T21:58:24.014Z,9.67
2022-12-17T22:00:54.792Z,9.72
2022-12-17T22:03:22.986Z,9.65
2022-12-17T22:05:51.202Z,9.72
2022-12-17T22:08:19.572Z,9.69
2022-12-17T22:10:51.660Z,9.59
2022-12-17T22:13:38.536Z,9.66
2022-12-17T22:16:07.710Z,9.54
2022-12-17T22:18:35.932Z,9.59
2022-12-17T22:21:04.760Z,9.44
2022-12-17T22:23:33.211Z,9.37
2022-12-17T22:26:01.463Z,9.37
2022-12-17T22:28:29.366Z,9.33
2022-12-17T22:31:16.004Z,9.37
2022-12-17T22:34:30.853Z,9.50
2022-12-17T22:38:53.437Z,9.46
2022-12-17T22:43:45.209Z,9.46
2022-12-17T22:44:49.499Z,9.44
2022-12-17T22:45:22.782Z,9.40
2022-12-17T22:47:51.566Z,9.47
2022-12-17T22:50:25.970Z,9.42
2022-12-17T22:52:56.721Z,9.40
2022-12-17T22:55:25.216Z,9.28
2022-12-17T22:57:55.148Z,9.41
2022-12-17T23:00:27.168Z,9.42
2022-12-17T23:02:56.264Z,9.44
2022-12-17T23:05:25.595Z,9.46
2022-12-17T23:07:53.845Z,9.53
2022-12-17T23:10:22.952Z,9.59
2022-12-17T23:12:51.431Z,9.63
2022-12-17T23:15:26.439Z,9.50
2022-12-17T23:17:56.684Z,9.60
2022-12-17T23:20:26.316Z,9.58
2022-12-17T23:22:54.547Z,9.35
2022-12-17T23:25:23.386Z,9.38
2022-12-17T23:27:51.769Z,9.33
2022-12-17T23:30:20.134Z,9.26
2022-12-17T23:32:49.149Z,9.14
2022-12-17T23:35:17.564Z,9.05
2022-12-17T23:37:45.561Z,8.97
2022-12-17T23:40:13.849Z,8.86
2022-12-17T23:42:41.920Z,8.86
2022-12-17T23:45:11.788Z,8.86
2022-12-17T23:47:41.563Z,8.94
2022-12-17T23:50:11.311Z,8.80
2022-12-17T23:52:39.639Z,8.79
2022-12-17T23:55:08.196Z,8.80
2022-12-17T23:57:36.279Z,8.68
